createdAt,value
2019-02-16T00:00:44.923Z,3.40
2019-02-16T00:03:16.098Z,3.37
2019-02-16T00:05:45.514Z,3.47
2019-02-16T00:08:15.036Z,3.20
2019-02-16T00:10:44.463Z,3.93
2019-02-16T00:13:13.914Z,3.60
2019-02-16T00:15:43.341Z,3.47
2019-02-16T00:18:12.794Z,3.63
2019-02-16T00:20:42.222Z,3.93
2019-02-16T00:23:11.599Z,3.63
2019-02-16T00:25:41.022Z,3.57
2019-02-16T00:28:10.470Z,3.60
2019-02-16T00:30:39.904Z,3.63
2019-02-16T00:33:09.427Z,3.67
2019-02-16T00:35:38.854Z,3.70
2019-02-16T00:38:08.297Z,3.53
2019-02-16T00:40:37.723Z,3.33
2019-02-16T00:43:07.175Z,3.60
2019-02-16T00:45:36.602Z,4.00
2019-02-16T00:48:06.076Z,4.03
2019-02-16T00:50:35.495Z,4.17
2019-02-16T00:53:04.931Z,3.97
2019-02-16T00:55:34.376Z,3.70
2019-02-16T00:58:03.799Z,3.80
2019-02-16T01:00:33.245Z,3.70
2019-02-16T01:03:02.672Z,4.60
2019-02-16T01:05:32.121Z,4.33
2019-02-16T01:08:01.551Z,4.13
2019-02-16T01:10:31.002Z,4.10
2019-02-16T01:13:00.357Z,4.13
2019-02-16T01:15:29.810Z,4.27
2019-02-16T01:17:59.235Z,4.57
2019-02-16T01:20:28.687Z,3.97
2019-02-16T01:22:58.114Z,4.20
2019-02-16T01:25:27.561Z,4.33
2019-02-16T01:27:56.990Z,3.80
2019-02-16T01:30:26.438Z,4.23
2019-02-16T01:32:55.864Z,3.97
2019-02-16T01:35:25.316Z,4.60
2019-02-16T01:37:54.742Z,3.83
2019-02-16T01:40:24.198Z,4.30
2019-02-16T01:42:53.622Z,4.50
2019-02-16T01:45:23.072Z,4.03
2019-02-16T01:47:52.500Z,4.07
2019-02-16T01:50:21.955Z,5.27
2019-02-16T01:52:51.399Z,4.67
2019-02-16T01:55:20.841Z,5.10
2019-02-16T01:57:50.271Z,5.20
2019-02-16T02:00:19.719Z,4.30
2019-02-16T02:02:49.147Z,4.37
2019-02-16T02:05:18.736Z,4.57
2019-02-16T02:07:48.170Z,4.10
2019-02-16T02:10:18.481Z,4.73
2019-02-16T02:12:48.080Z,4.30
2019-02-16T02:15:17.631Z,4.47
2019-02-16T02:17:47.062Z,4.20
2019-02-16T02:20:17.729Z,4.30
2019-02-16T02:22:47.151Z,4.03
2019-02-16T02:25:16.604Z,4.13
2019-02-16T02:27:46.035Z,4.10
2019-02-16T02:30:15.495Z,4.23
2019-02-16T02:32:44.915Z,4.70
2019-02-16T02:35:14.292Z,4.03
2019-02-16T02:37:43.713Z,4.50
2019-02-16T02:40:13.164Z,4.33
2019-02-16T02:42:42.591Z,4.23
2019-02-16T02:45:12.117Z,4.27
2019-02-16T02:47:41.539Z,5.53
2019-02-16T02:50:10.987Z,4.20
2019-02-16T02:52:40.415Z,4.83
2019-02-16T02:55:09.867Z,4.20
2019-02-16T02:57:39.294Z,4.10
2019-02-16T03:00:09.914Z,4.13
2019-02-16T03:02:39.511Z,4.83
2019-02-16T03:05:10.403Z,4.27
2019-02-16T03:07:39.828Z,4.03
2019-02-16T03:10:09.258Z,4.13
2019-02-16T03:12:38.719Z,4.17
2019-02-16T03:15:08.275Z,4.57
2019-02-16T03:17:37.791Z,4.23
2019-02-16T03:20:07.483Z,4.67
2019-02-16T03:23:13.522Z,4.23
2019-02-16T03:25:46.413Z,4.33
2019-02-16T03:28:40.395Z,4.20
2019-02-16T03:31:15.716Z,3.87
2019-02-16T03:33:48.219Z,4.43
2019-02-16T03:36:44.835Z,4.07
2019-02-16T03:39:15.605Z,4.43
2019-02-16T03:41:45.052Z,3.97
2019-02-16T03:44:14.480Z,4.50
2019-02-16T03:46:43.931Z,3.77
2019-02-16T03:49:13.360Z,4.53
2019-02-16T03:51:42.811Z,4.63
2019-02-16T03:54:12.239Z,4.53
2019-02-16T03:56:41.687Z,4.00
2019-02-16T03:59:11.125Z,4.50
2019-02-16T04:01:40.576Z,4.67
2019-02-16T04:04:10.003Z,3.90
2019-02-16T04:06:39.456Z,4.20
2019-02-16T04:09:08.887Z,4.17
2019-02-16T04:11:38.347Z,3.83
2019-02-16T04:16:54.274Z,3.90
2019-02-16T04:19:23.688Z,4.30
2019-02-16T04:21:53.140Z,3.73
2019-02-16T04:24:22.576Z,4.10
2019-02-16T04:26:52.036Z,4.07
2019-02-16T04:29:21.467Z,4.37
2019-02-16T04:31:50.923Z,4.40
2019-02-16T04:34:20.355Z,3.83
2019-02-16T04:36:49.820Z,4.80
2019-02-16T04:39:19.251Z,4.37
2019-02-16T04:41:48.688Z,3.43
2019-02-16T04:44:18.138Z,4.10
2019-02-16T04:46:47.586Z,4.17
2019-02-16T04:49:17.026Z,4.00
2019-02-16T04:51:46.451Z,4.60
2019-02-16T04:54:15.911Z,4.43
2019-02-16T04:56:45.335Z,3.90
2019-02-16T04:59:14.787Z,4.43
2019-02-16T05:01:44.219Z,4.40
2019-02-16T05:04:14.342Z,3.97
2019-02-16T05:06:43.770Z,4.10
2019-02-16T05:09:13.227Z,4.20
2019-02-16T05:11:42.930Z,4.40
2019-02-16T05:14:12.397Z,4.40
2019-02-16T05:16:41.828Z,4.00
2019-02-16T05:19:11.288Z,4.17
2019-02-16T05:21:40.706Z,4.10
2019-02-16T05:24:10.164Z,4.20
2019-02-16T05:26:39.592Z,4.30
2019-02-16T05:29:09.035Z,4.40
2019-02-16T05:31:38.468Z,4.30
2019-02-16T05:34:07.995Z,3.93
2019-02-16T05:36:37.424Z,4.50
2019-02-16T05:39:06.876Z,3.73
2019-02-16T05:41:36.305Z,5.50
2019-02-16T05:44:06.727Z,4.53
2019-02-16T05:46:36.155Z,4.53
2019-02-16T05:49:05.604Z,4.70
2019-02-16T05:51:35.040Z,4.13
2019-02-16T05:54:04.495Z,4.17
2019-02-16T05:56:33.923Z,3.93
2019-02-16T05:59:03.387Z,4.00
2019-02-16T06:01:32.818Z,4.63
2019-02-16T06:04:02.271Z,4.40
2019-02-16T06:06:31.692Z,4.27
2019-02-16T06:09:01.141Z,4.50
2019-02-16T06:11:32.407Z,4.53
2019-02-16T06:14:01.858Z,4.50
2019-02-16T06:16:31.286Z,4.23
2019-02-16T06:19:00.738Z,4.30
2019-02-16T06:21:30.168Z,4.50
2019-02-16T06:23:59.618Z,3.87
2019-02-16T06:26:29.056Z,4.23
2019-02-16T06:28:58.503Z,4.17
2019-02-16T06:31:27.934Z,4.83
2019-02-16T06:33:57.388Z,4.07
2019-02-16T06:36:28.471Z,5.10
2019-02-16T06:38:57.919Z,4.67
2019-02-16T06:41:27.357Z,4.17
2019-02-16T06:43:56.800Z,4.30
2019-02-16T06:46:26.235Z,4.63
2019-02-16T06:48:55.678Z,4.40
2019-02-16T06:51:25.111Z,4.27
2019-02-16T06:53:54.559Z,4.33
2019-02-16T06:56:25.630Z,4.57
2019-02-16T06:58:55.080Z,4.00
2019-02-16T07:01:24.517Z,4.30
2019-02-16T07:03:53.975Z,4.30
2019-02-16T07:06:23.408Z,4.50
2019-02-16T07:08:52.869Z,4.60
2019-02-16T07:11:22.291Z,4.30
2019-02-16T07:13:51.751Z,4.10
2019-02-16T07:16:31.795Z,4.13
2019-02-16T07:19:02.895Z,4.27
2019-02-16T07:21:32.323Z,4.63
2019-02-16T07:24:01.783Z,4.23
2019-02-16T07:26:31.213Z,4.50
2019-02-16T07:29:00.666Z,3.97
2019-02-16T07:31:30.093Z,4.00
2019-02-16T07:33:59.556Z,4.10
2019-02-16T07:36:28.984Z,4.50
2019-02-16T07:38:58.417Z,3.83
2019-02-16T07:41:27.871Z,4.00
2019-02-16T07:43:58.939Z,3.83
2019-02-16T07:46:45.339Z,3.97
2019-02-16T07:49:16.401Z,3.90
2019-02-16T07:51:47.490Z,3.90
2019-02-16T07:54:18.562Z,3.77
2019-02-16T07:56:49.664Z,4.03
2019-02-16T07:59:20.723Z,3.97
2019-02-16T08:01:56.660Z,4.40
2019-02-16T08:04:33.168Z,3.90
2019-02-16T08:07:13.282Z,3.80
2019-02-16T08:09:53.354Z,3.73
2019-02-16T08:12:36.518Z,4.07
2019-02-16T08:15:24.633Z,3.87
2019-02-16T08:17:55.698Z,4.00
2019-02-16T08:20:29.563Z,4.00
2019-02-16T08:23:03.491Z,3.33
2019-02-16T08:25:46.878Z,3.87
2019-02-16T08:28:20.618Z,3.60
2019-02-16T08:30:51.710Z,3.83
2019-02-16T08:33:22.783Z,3.97
2019-02-16T08:36:11.950Z,3.53
2019-02-16T08:38:51.834Z,2.97
2019-02-16T08:41:39.262Z,3.47
2019-02-16T08:44:13.010Z,2.73
2019-02-16T08:46:44.102Z,3.43
2019-02-16T08:49:15.252Z,3.07
2019-02-16T08:51:58.283Z,3.30
2019-02-16T08:54:38.354Z,3.03
2019-02-16T08:57:25.923Z,3.50
2019-02-16T09:00:02.021Z,3.70
2019-02-16T09:02:37.588Z,3.70
2019-02-16T09:05:08.726Z,3.90
2019-02-16T09:07:45.541Z,4.00
2019-02-16T09:10:16.615Z,3.27
2019-02-16T09:12:47.643Z,3.70
2019-02-16T09:15:34.982Z,3.80
2019-02-16T09:18:06.080Z,3.53
2019-02-16T09:20:53.441Z,3.40
2019-02-16T09:23:30.245Z,3.10
2019-02-16T09:26:10.348Z,3.50
2019-02-16T09:28:44.225Z,3.47
2019-02-16T09:31:32.007Z,3.60
2019-02-16T09:34:14.975Z,4.07
2019-02-16T09:36:52.097Z,3.93
2019-02-16T09:39:41.208Z,3.80
2019-02-16T09:42:29.052Z,3.70
2019-02-16T09:45:00.211Z,4.00
2019-02-16T09:47:43.186Z,3.80
2019-02-16T09:50:14.262Z,3.77
2019-02-16T09:52:45.363Z,3.60
2019-02-16T09:55:19.362Z,3.97
2019-02-16T09:57:50.460Z,3.60
2019-02-16T10:00:24.546Z,3.80
2019-02-16T10:03:04.617Z,4.33
2019-02-16T10:05:41.608Z,3.97
2019-02-16T10:08:24.770Z,4.07
2019-02-16T10:11:11.912Z,3.93
2019-02-16T10:13:55.259Z,4.67
2019-02-16T10:16:31.868Z,5.23
2019-02-16T10:19:10.560Z,4.27
2019-02-16T10:21:51.352Z,4.47
2019-02-16T10:24:34.154Z,5.10
2019-02-16T10:27:21.663Z,4.13
2019-02-16T10:30:09.222Z,4.87
2019-02-16T10:32:46.343Z,6.87
2019-02-16T10:35:26.441Z,5.93
2019-02-16T10:37:57.539Z,5.63
2019-02-16T10:40:40.920Z,5.37
2019-02-16T10:43:27.250Z,5.90
2019-02-16T10:46:04.332Z,5.40
2019-02-16T10:48:38.094Z,5.70
2019-02-16T10:51:09.188Z,6.20
2019-02-16T10:53:45.788Z,6.47
2019-02-16T10:56:16.868Z,6.47
2019-02-16T10:59:03.979Z,6.90
2019-02-16T11:01:37.869Z,7.07
2019-02-16T11:04:11.691Z,6.53
2019-02-16T11:06:48.587Z,6.77
2019-02-16T11:09:22.644Z,6.73
2019-02-16T11:12:05.730Z,6.53
2019-02-16T11:14:53.302Z,6.33
2019-02-16T11:17:29.776Z,6.87
2019-02-16T11:20:06.319Z,6.70
2019-02-16T11:22:43.146Z,6.72
2019-02-16T11:25:19.904Z,7.03
2019-02-16T11:27:53.963Z,7.07
2019-02-16T11:30:25.044Z,6.67
2019-02-16T11:32:58.751Z,6.80
2019-02-16T11:35:46.092Z,6.63
2019-02-16T11:38:19.635Z,6.70
2019-02-16T11:40:59.675Z,6.70
2019-02-16T11:43:30.792Z,7.67
2019-02-16T11:46:04.533Z,7.65
2019-02-16T11:48:41.652Z,7.45
2019-02-16T11:51:12.731Z,7.95
2019-02-16T11:54:00.452Z,8.30
2019-02-16T11:56:43.842Z,8.53
2019-02-16T11:59:33.044Z,9.10
2019-02-16T12:02:04.131Z,9.10
2019-02-16T12:04:35.239Z,8.50
2019-02-16T12:07:06.324Z,8.95
2019-02-16T12:09:40.383Z,9.43
2019-02-16T12:12:11.462Z,8.30
2019-02-16T12:14:54.648Z,9.08
2019-02-16T12:17:25.729Z,8.50
2019-02-16T12:19:56.831Z,8.90
2019-02-16T12:22:43.156Z,9.15
2019-02-16T12:25:20.372Z,8.80
2019-02-16T12:28:00.858Z,9.35
2019-02-16T12:30:48.457Z,9.60
2019-02-16T12:33:22.547Z,10.58
2019-02-16T12:35:56.479Z,10.18
2019-02-16T12:38:27.567Z,9.40
2019-02-16T12:40:59.743Z,9.23
2019-02-16T12:43:30.818Z,9.10
2019-02-16T12:46:01.936Z,10.10
2019-02-16T12:48:34.852Z,10.05
2019-02-16T12:51:12.175Z,9.55
2019-02-16T12:53:46.850Z,9.38
2019-02-16T12:56:36.311Z,8.90
2019-02-16T12:59:10.157Z,9.00
2019-02-16T13:01:47.321Z,9.75
2019-02-16T13:04:27.331Z,8.90
2019-02-16T13:07:01.431Z,9.23
2019-02-16T13:09:32.535Z,9.30
2019-02-16T13:12:03.640Z,10.28
2019-02-16T13:14:46.963Z,9.43
2019-02-16T13:17:24.152Z,9.13
2019-02-16T13:20:07.145Z,9.08
2019-02-16T13:22:41.020Z,9.50
2019-02-16T13:25:12.071Z,8.25
2019-02-16T13:27:43.788Z,8.75
2019-02-16T13:30:15.008Z,8.03
2019-02-16T13:32:48.844Z,9.25
2019-02-16T13:35:22.896Z,8.50
2019-02-16T13:38:12.447Z,8.18
2019-02-16T13:40:43.548Z,8.40
2019-02-16T13:43:30.867Z,7.78
2019-02-16T13:46:02.065Z,8.85
2019-02-16T13:48:33.142Z,8.90
2019-02-16T13:51:04.253Z,8.75
2019-02-16T13:53:51.855Z,9.20
2019-02-16T13:56:23.038Z,9.38
2019-02-16T13:59:07.567Z,9.25
2019-02-16T14:01:38.672Z,10.10
2019-02-16T14:04:11.987Z,10.03
2019-02-16T14:06:46.148Z,10.35
2019-02-16T14:09:17.220Z,10.15
2019-02-16T14:11:48.337Z,9.58
2019-02-16T14:14:19.421Z,9.00
2019-02-16T14:16:50.521Z,9.88
2019-02-16T14:19:19.960Z,9.03
2019-02-16T14:21:49.414Z,9.30
2019-02-16T14:24:20.503Z,9.10
2019-02-16T14:26:49.975Z,10.00
2019-02-16T14:29:19.416Z,9.13
2019-02-16T14:31:48.881Z,9.83
2019-02-16T14:34:18.314Z,9.38
2019-02-16T14:36:47.846Z,9.70
2019-02-16T14:39:17.650Z,8.78
2019-02-16T14:41:47.310Z,8.43
2019-02-16T14:44:16.755Z,9.00
2019-02-16T14:46:46.220Z,8.78
2019-02-16T14:49:15.656Z,8.88
2019-02-16T14:51:45.132Z,8.45
2019-02-16T14:54:14.562Z,9.00
2019-02-16T14:56:44.015Z,9.05
2019-02-16T14:59:13.453Z,8.95
2019-02-16T15:01:42.911Z,8.88
2019-02-16T15:04:12.384Z,9.58
2019-02-16T15:06:41.839Z,8.90
2019-02-16T15:09:11.286Z,8.53
2019-02-16T15:11:41.044Z,9.53
2019-02-16T15:14:10.474Z,9.15
2019-02-16T15:16:39.985Z,8.95
2019-02-16T15:19:09.383Z,9.60
2019-02-16T15:21:38.852Z,9.75
2019-02-16T15:24:08.299Z,10.30
2019-02-16T15:26:37.754Z,9.45
2019-02-16T15:29:08.196Z,10.38
2019-02-16T15:31:37.634Z,10.30
2019-02-16T15:34:07.107Z,10.53
2019-02-16T15:36:36.546Z,9.78
2019-02-16T15:39:06.982Z,9.98
2019-02-16T15:41:36.892Z,9.50
2019-02-16T15:44:06.354Z,9.88
2019-02-16T15:46:35.790Z,9.80
2019-02-16T15:49:05.250Z,9.45
2019-02-16T15:51:34.692Z,9.25
2019-02-16T15:54:04.228Z,8.95
2019-02-16T15:56:33.729Z,9.78
2019-02-16T15:59:03.269Z,9.58
2019-02-16T16:01:32.699Z,9.20
2019-02-16T16:04:02.131Z,9.00
2019-02-16T16:06:31.651Z,9.63
2019-02-16T16:09:08.496Z,10.07
2019-02-16T16:11:42.452Z,9.47
2019-02-16T16:14:19.235Z,9.07
2019-02-16T16:16:50.316Z,9.20
2019-02-16T16:19:33.435Z,8.83
2019-02-16T16:22:07.961Z,8.37
2019-02-16T16:24:44.594Z,9.60
2019-02-16T16:27:15.603Z,9.40
2019-02-16T16:29:46.644Z,8.73
2019-02-16T16:32:33.970Z,9.57
2019-02-16T16:35:20.127Z,10.13
2019-02-16T16:37:59.164Z,10.03
2019-02-16T16:40:30.371Z,9.87
2019-02-16T16:43:10.096Z,9.40
2019-02-16T16:45:44.177Z,9.53
2019-02-16T16:48:31.803Z,9.67
2019-02-16T16:51:15.225Z,10.03
2019-02-16T16:53:49.040Z,11.03
2019-02-16T16:56:28.400Z,10.57
2019-02-16T16:59:07.817Z,10.23
2019-02-16T17:01:41.711Z,10.27
2019-02-16T17:04:12.820Z,11.77
2019-02-16T17:06:43.890Z,9.57
2019-02-16T17:09:22.020Z,15.63
2019-02-16T17:12:11.252Z,17.10
2019-02-16T17:14:45.324Z,14.73
2019-02-16T17:17:16.401Z,17.10
2019-02-16T17:19:47.502Z,14.00
2019-02-16T17:22:33.488Z,14.67
2019-02-16T17:25:04.861Z,14.80
2019-02-16T17:27:38.696Z,13.17
2019-02-16T17:30:11.639Z,15.87
2019-02-16T17:32:51.995Z,14.33
2019-02-16T17:35:39.393Z,12.87
2019-02-16T17:38:19.587Z,12.40
2019-02-16T17:40:53.301Z,11.43
2019-02-16T17:43:33.674Z,12.63
2019-02-16T17:46:07.473Z,12.40
2019-02-16T17:48:57.139Z,14.03
2019-02-16T17:51:37.256Z,14.63
2019-02-16T17:54:10.951Z,16.00
2019-02-16T17:56:46.970Z,16.73
2019-02-16T17:59:17.956Z,14.63
2019-02-16T18:01:49.026Z,15.60
2019-02-16T18:04:23.471Z,14.97
2019-02-16T18:07:00.298Z,15.70
2019-02-16T18:09:31.408Z,14.80
2019-02-16T18:12:11.533Z,14.43
2019-02-16T18:14:42.641Z,14.73
2019-02-16T18:17:15.455Z,14.90
2019-02-16T18:19:49.011Z,13.57
2019-02-16T18:22:20.103Z,14.43
2019-02-16T18:24:51.199Z,12.60
2019-02-16T18:27:22.289Z,13.67
2019-02-16T18:30:09.895Z,12.30
2019-02-16T18:32:43.482Z,13.00
2019-02-16T18:35:23.457Z,13.10
2019-02-16T18:37:49.987Z,14.33
2019-02-16T18:40:21.178Z,14.37
2019-02-16T18:42:58.035Z,14.57
2019-02-16T18:45:44.224Z,19.63
2019-02-16T18:48:31.979Z,18.80
2019-02-16T18:51:03.067Z,15.57
2019-02-16T18:53:34.157Z,17.53
2019-02-16T18:56:08.384Z,15.47
2019-02-16T18:58:55.883Z,15.83
2019-02-16T19:01:29.718Z,15.73
2019-02-16T19:04:17.324Z,17.40
2019-02-16T19:07:03.734Z,16.17
2019-02-16T19:09:34.823Z,13.20
2019-02-16T19:12:20.752Z,12.67
2019-02-16T19:14:51.841Z,13.40
2019-02-16T19:17:38.141Z,13.37
2019-02-16T19:20:16.255Z,12.87
2019-02-16T19:22:50.926Z,12.77
2019-02-16T19:25:24.777Z,12.13
2019-02-16T19:27:55.893Z,11.57
2019-02-16T19:30:28.036Z,13.00
2019-02-16T19:33:15.049Z,12.30
2019-02-16T19:35:51.890Z,13.73
2019-02-16T19:38:28.706Z,18.77
2019-02-16T19:41:02.259Z,15.10
2019-02-16T19:43:39.363Z,15.57
2019-02-16T19:46:10.460Z,14.47
2019-02-16T19:48:57.856Z,15.70
2019-02-16T19:51:41.211Z,14.00
2019-02-16T19:54:12.294Z,12.30
2019-02-16T19:56:43.395Z,12.50
2019-02-16T19:59:23.215Z,12.67
2019-02-16T20:02:10.900Z,14.13
2019-02-16T20:04:44.684Z,12.80
2019-02-16T20:07:15.804Z,13.97
2019-02-16T20:10:03.155Z,14.40
2019-02-16T20:12:50.698Z,12.83
2019-02-16T20:15:27.453Z,12.77
2019-02-16T20:18:01.275Z,14.97
2019-02-16T20:20:45.739Z,14.57
2019-02-16T20:23:19.459Z,14.67
2019-02-16T20:25:50.542Z,14.83
2019-02-16T20:28:27.095Z,12.83
2019-02-16T20:30:58.161Z,15.07
2019-02-16T20:33:38.442Z,15.00
2019-02-16T20:36:11.995Z,15.60
2019-02-16T20:38:43.105Z,16.03
2019-02-16T20:41:16.665Z,15.63
2019-02-16T20:43:47.769Z,16.17
2019-02-16T20:46:30.756Z,15.40
2019-02-16T20:49:07.514Z,15.67
2019-02-16T20:51:42.471Z,16.53
2019-02-16T20:54:25.572Z,15.53
2019-02-16T20:57:02.471Z,14.30
2019-02-16T20:59:48.916Z,15.00
2019-02-16T21:02:23.931Z,15.23
2019-02-16T21:05:00.949Z,15.33
2019-02-16T21:07:38.035Z,16.03
2019-02-16T21:10:09.871Z,16.40
2019-02-16T21:12:53.075Z,15.30
2019-02-16T21:15:30.255Z,15.30
2019-02-16T21:18:01.359Z,17.00
2019-02-16T21:20:48.448Z,16.37
2019-02-16T21:23:31.922Z,15.07
2019-02-16T21:26:05.928Z,15.90
2019-02-16T21:28:49.115Z,16.43
2019-02-16T21:31:32.030Z,15.80
2019-02-16T21:34:03.134Z,15.87
2019-02-16T21:36:49.279Z,16.60
2019-02-16T21:39:20.459Z,15.97
2019-02-16T21:41:54.256Z,17.47
2019-02-16T21:44:25.376Z,16.50
2019-02-16T21:46:59.266Z,15.07
2019-02-16T21:49:33.307Z,16.63
2019-02-16T21:52:20.817Z,17.17
2019-02-16T21:54:57.729Z,16.00
2019-02-16T21:57:45.249Z,16.03
2019-02-16T22:00:31.441Z,15.20
2019-02-16T22:03:02.548Z,15.67
2019-02-16T22:05:51.670Z,14.97
2019-02-16T22:08:22.776Z,14.97
2019-02-16T22:11:03.775Z,16.17
2019-02-16T22:13:33.212Z,15.13
2019-02-16T22:16:02.727Z,16.07
2019-02-16T22:18:32.181Z,16.23
2019-02-16T22:21:01.620Z,15.13
2019-02-16T22:23:31.096Z,15.77
2019-02-16T22:26:00.532Z,15.97
2019-02-16T22:28:31.162Z,16.67
2019-02-16T22:31:00.840Z,17.07
2019-02-16T22:33:31.237Z,16.67
2019-02-16T22:36:00.631Z,15.70
2019-02-16T22:38:30.080Z,16.97
2019-02-16T22:40:59.534Z,16.63
2019-02-16T22:43:28.965Z,16.37
2019-02-16T22:45:58.435Z,16.17
2019-02-16T22:48:27.866Z,16.30
2019-02-16T22:50:57.331Z,17.20
2019-02-16T22:53:26.766Z,15.60
2019-02-16T22:55:56.227Z,15.97
2019-02-16T22:58:28.722Z,16.47
2019-02-16T23:00:56.743Z,16.93
2019-02-16T23:03:27.811Z,16.87
2019-02-16T23:05:57.271Z,14.67
2019-02-16T23:08:26.705Z,15.87
2019-02-16T23:13:20.627Z,16.63
2019-02-16T23:15:50.165Z,15.63
2019-02-16T23:18:19.663Z,17.23
2019-02-16T23:20:49.494Z,16.77
2019-02-16T23:23:18.995Z,16.70
2019-02-16T23:25:48.457Z,16.57
2019-02-16T23:28:17.958Z,17.70
2019-02-16T23:30:47.486Z,17.43
2019-02-16T23:33:17.058Z,16.33
2019-02-16T23:35:47.586Z,18.03
2019-02-16T23:38:17.022Z,17.87
2019-02-16T23:40:46.479Z,17.07
2019-02-16T23:43:16.006Z,16.60
2019-02-16T23:45:45.480Z,16.97
2019-02-16T23:48:14.925Z,17.20
2019-02-16T23:50:44.378Z,18.30
2019-02-16T23:53:13.820Z,18.13
2019-02-16T23:55:43.283Z,16.07
2019-02-16T23:58:12.720Z,17.30
